YPTN/KTR METAR and TAF weather

Enter ICAO airport designator
Station Type Date Time Source
YPTN METAR 2020/11/28 20:30 UTC NOAA

YPTN 282030Z AUTO 23002KT 9999 // NCD 25/23 Q1007 RF00.0/008.6


Station Type Date Time Source
YPTN Decoded METAR 2020/11/28 20:30 UTC NOAA

Tindal / Katherine, Australia (YPTN) 14-26S 132-16E 109M
Nov 28, 2020 - 03:30 PM EST / 2020.11.28 2030 UTC
Wind: from the SW (230 degrees) at 2 MPH (2 KT):0
Visibility: greater than 7 mile(s):0
Temperature: 77 F (25 C)
Dew Point: 73 F (23 C)
Relative Humidity: 88%
Pressure (altimeter): 29.74 in. Hg (1007 hPa)
ob: YPTN 282030Z AUTO 23002KT 9999 // NCD 25/23 Q1007 RF00.0/008.6
cycle: 20

Station Type Date Time Source
YPTN TAF 2020/11/28 19:35 UTC NOAA

TAF
AMD YPTN 281925Z 2819/2918 35005KT 9999 SCT018
FM290100 06008KT CAVOK
FM291600 35006KT 9999 SCT020

Example: see airport list